Tuesday, January 15, 2019, 6:44 PM EST
Back to Local

KMMU, Morristown Municipal

Location: Morristown, NJ, United States Lat: 40.8
Local Time: 6:44 PM EST (23:44 GMT) Lon: -74.417
Time Zone: US/Eastern Elev: 187 ft

Show me the last for .
Show Decoded

2019-01-15 17:45 METAR KMMU 152245Z 00000KT 10SM SKC M02/M06 A3013 =
2019-01-15 16:45 METAR KMMU 152145Z 28004KT 10SM SKC 01/M07 A3012 =
2019-01-15 15:45 METAR KMMU 152045Z 30005KT 10SM SCT250 02/M07 A3012 =
2019-01-15 14:45 METAR KMMU 151945Z 33006KT 10SM BKN250 02/M08 A3012 =
2019-01-15 13:45 METAR KMMU 151845Z 36008KT 10SM BKN250 02/M08 A3012 =
2019-01-15 12:55 METAR KMMU 151755Z 31008KT 10SM BKN250 01/M07 A3013 =
2019-01-15 11:45 METAR KMMU 151645Z 32006KT 10SM BKN250 00/M08 A3016 =
2019-01-15 10:45 METAR KMMU 151545Z 01005KT 10SM SCT250 00/M08 A3018 =
2019-01-15 09:45 METAR KMMU 151445Z 34005G13KT 10SM SCT250 M02/M07 A3019 =
2019-01-15 08:50 METAR KMMU 151350Z 01004KT 10SM BKN250 M03/M07 A3017 =
2019-01-15 07:45 METAR KMMU 151245Z 00000KT 10SM SCT250 M08/M09 A3014 =
2019-01-15 06:46 METAR KMMU 151146Z 00000KT 10SM FEW250 M09/M10 A3013 =
2019-01-15 06:45 METAR KMMU 151145Z 00000KT 10SM FEW250 M09/M10 A3013 =
2019-01-15 06:35 METAR KMMU 151135Z AUTO 00000KT 10SM CLR M09/M11 A3012 RMK AO2 =
2019-01-15 06:15 METAR KMMU 151115Z AUTO 00000KT 10SM CLR M10/M11 A3011 RMK AO2 =
2019-01-15 05:55 METAR KMMU 151055Z AUTO 00000KT 10SM CLR M10/M11 A3010 RMK AO2 =
2019-01-15 05:35 METAR KMMU 151035Z AUTO 00000KT 10SM CLR M10/M11 A3010 RMK AO2 =
2019-01-15 05:15 METAR KMMU 151015Z AUTO 00000KT 10SM CLR M10/M11 A3010 RMK AO2 =
2019-01-15 04:55 METAR KMMU 150955Z AUTO 00000KT 10SM CLR M10/M10 A3010 RMK AO2 =
2019-01-15 04:35 METAR KMMU 150935Z AUTO 00000KT 10SM CLR M10/M11 A3010 RMK AO2 =
2019-01-15 04:15 METAR KMMU 150915Z AUTO 00000KT 10SM CLR M10/M11 A3010 RMK AO2 =
2019-01-15 03:55 METAR KMMU 150855Z AUTO 00000KT 10SM CLR M10/M11 A3010 RMK AO2 =
2019-01-15 03:35 METAR KMMU 150835Z AUTO 00000KT 10SM CLR M10/M11 A3011 RMK AO2 =
2019-01-15 03:15 METAR KMMU 150815Z AUTO 00000KT 10SM CLR M10/M10 A3012 RMK AO2 =
2019-01-15 02:55 METAR KMMU 150755Z AUTO 00000KT 10SM CLR M10/M10 A3012 RMK AO2 =
2019-01-15 02:35 METAR KMMU 150735Z AUTO 00000KT 10SM CLR M10/M10 A3012 RMK AO2 =
2019-01-15 02:15 METAR KMMU 150715Z AUTO 00000KT 10SM CLR M09/M10 A3012 RMK AO2 =
2019-01-15 01:55 METAR KMMU 150655Z AUTO 00000KT 10SM CLR M09/M10 A3012 RMK AO2 =
2019-01-15 01:35 METAR KMMU 150635Z AUTO 00000KT 10SM CLR M09/M10 A3012 RMK AO2 =
2019-01-15 01:15 METAR KMMU 150615Z AUTO 00000KT 10SM CLR M09/M10 A3012 RMK AO2 =
2019-01-15 00:55 METAR KMMU 150555Z AUTO 00000KT 10SM CLR M09/M10 A3012 RMK AO2 =
2019-01-15 00:35 METAR KMMU 150535Z AUTO 00000KT 10SM CLR M09/M10 A3013 RMK AO2 =
2019-01-15 00:15 METAR KMMU 150515Z AUTO 00000KT 10SM CLR M09/M09 A3013 RMK AO2 =
2019-01-14 23:55 METAR KMMU 150455Z AUTO 00000KT 10SM CLR M09/M10 A3013 RMK AO2 =
2019-01-14 23:35 METAR KMMU 150435Z AUTO 00000KT 10SM CLR M08/M09 A3014 RMK AO2 =
2019-01-14 23:15 METAR KMMU 150415Z AUTO 00000KT 10SM CLR M08/M10 A3014 RMK AO2 =
2019-01-14 22:55 METAR KMMU 150355Z AUTO 00000KT 10SM CLR M08/M10 A3015 RMK AO2 =
2019-01-14 22:35 METAR KMMU 150335Z AUTO 00000KT 10SM CLR M08/M09 A3015 RMK AO2 =
2019-01-14 22:15 METAR KMMU 150315Z AUTO 00000KT 10SM CLR M08/M10 A3015 RMK AO2 =
2019-01-14 21:45 METAR KMMU 150245Z 00000KT 10SM SKC M07/M08 A3015 =
2019-01-14 20:45 METAR KMMU 150145Z 00000KT 10SM SKC M07/M09 A3015 =
2019-01-14 19:45 METAR KMMU 150045Z 00000KT 10SM SKC M07/M08 A3015 =
2019-01-14 18:45 METAR KMMU 142345Z 00000KT 10SM SKC M06/M08 A3016 =

Support USWX by starting your Amazon purchase here.